FNLU/LAD METAR and TAF weather

Enter ICAO airport designator
Station Type Date Time Source
FNLU METAR 2018/10/22 16:00 UTC NOAA

FNLU 221600Z 26012KT 9999 FEW020 FEW023CB 27/23 Q1007 NOSIG


Station Type Date Time Source
FNLU Decoded METAR 2018/10/22 16:00 UTC NOAA

Luanda, Angola (FNLU) 08-51S 013-14E 70M
Oct 22, 2018 - 12:00 PM EDT / 2018.10.22 1600 UTC
Wind: from the W (260 degrees) at 14 MPH (12 KT):0
Visibility: greater than 7 mile(s):0
Sky conditions: mostly clear
Weather: Cumulonimbus clouds observed
Temperature: 80 F (27 C)
Dew Point: 73 F (23 C)
Relative Humidity: 78%
Pressure (altimeter): 29.74 in. Hg (1007 hPa)
ob: FNLU 221600Z 26012KT 9999 FEW020 FEW023CB 27/23 Q1007 NOSIG
cycle: 16

Station Type Date Time Source
FNLU TAF 2018/10/22 12:45 UTC NOAA

TAF
AMD FNLU 221545Z 2212/2318 28006KT 9000 FEW018 SCT025 PROB30
TEMPO 2213/2217 22008KT 9999 FEW020 FEW025CB BKN050
BECMG 2218/2221 16005KT 4000 -TSRA SCT017 FEW019CB OVC040 PROB30
TEMPO 2303/2308 VRB03KT 2000 TSRA BR SCT010 FEW018CB OVC025
BECMG 2308/2310 22005KT 6000 BKN022 PROB30
TEMPO 2310/2314 28008KT 9000 SCT018 BKN023


Example: see airport list